Terminal Aerodrome Forecast
Issued by NWS

Home | Current Version | Previous Version | Text Only | Print | Product List | Glossary On
Versions: 1 2 3 4 5 6 7 8 9 10 11 12 13 14 15 16 17 18 19 20 21 22 23 24 25 26 27 28 29 30 31 32 33 34 35 36 37 38 39
000
FTUS45 KPSR 040525
TAFSDL
TAF
KSDL 040525Z 0406/0506 03012KT P6SM VCTS SCT080CB BKN150 OVC200
      TEMPO 0406/0408 VRB15G25KT TSRA BKN080CB
     FM040900 VRB06KT P6SM BKN120 OVC200
     FM042000 24008KT P6SM SCT150 SCT250=

USA.gov is the U.S. government's official web portal to all federal, state and local government web resources and services.